Time;durP1;ratioP1;P1;durP2;ratioP2;P2;SDS_P1;SDS_P2;PMS_P1;PMS_P2;Temp;Humidity;BMP_temperature;BMP_pressure;BME280_temperature;BME280_humidity;BME280_pressure;Samples;Min_cycle;Max_cycle;Signal;HPM_P1;HPM_P2
2023/09/22 00:00:01;;;;;;;1.60;1.50;;;23.30;99.90;;;;;;4986269;28;20640;-64
2023/09/22 00:02:29;;;;;;;1.73;1.20;;;23.20;99.90;;;;;;4988440;28;20475;-61
2023/09/22 00:04:55;;;;;;;1.40;0.90;;;23.20;99.90;;;;;;4984268;28;20461;-57
2023/09/22 00:07:22;;;;;;;1.43;1.20;;;23.20;99.90;;;;;;4987012;28;20460;-63
2023/09/22 00:09:49;;;;;;;1.90;1.60;;;23.20;99.90;;;;;;4988327;28;20456;-67
2023/09/22 00:12:16;;;;;;;1.83;1.40;;;23.20;99.90;;;;;;4986332;28;20464;-59
2023/09/22 00:14:43;;;;;;;1.37;1.20;;;23.20;99.90;;;;;;4978890;28;20488;-67
2023/09/22 00:17:09;;;;;;;2.40;1.30;;;23.20;99.90;;;;;;4984347;28;20464;-68
2023/09/22 00:19:37;;;;;;;1.83;1.60;;;23.20;99.90;;;;;;4987569;28;20903;-60
2023/09/22 00:22:05;;;;;;;1.57;1.40;;;23.20;99.90;;;;;;4987495;28;20866;-66
2023/09/22 00:24:32;;;;;;;1.60;1.50;;;23.20;99.90;;;;;;4983071;28;20465;-67
2023/09/22 00:26:58;;;;;;;1.70;1.30;;;23.20;99.90;;;;;;4986334;28;20462;-68
2023/09/22 00:29:25;;;;;;;2.07;1.20;;;23.20;99.90;;;;;;4986003;28;20472;-56
2023/09/22 00:31:52;;;;;;;3.47;1.77;;;23.20;99.90;;;;;;4985030;28;20823;-61
2023/09/22 00:34:18;;;;;;;2.27;1.57;;;23.20;99.90;;;;;;4982236;28;21005;-63
2023/09/22 00:36:48;;;;;;;1.50;1.23;;;23.20;99.90;;;;;;4988234;28;20465;-63
2023/09/22 00:39:15;;;;;;;1.90;1.80;;;23.20;99.90;;;;;;4986113;28;20978;-63
2023/09/22 00:41:42;;;;;;;1.30;1.17;;;23.20;99.90;;;;;;4985505;28;20459;-71
2023/09/22 00:44:08;;;;;;;1.40;1.07;;;23.20;99.90;;;;;;4984650;28;20467;-63
2023/09/22 00:46:36;;;;;;;1.53;1.17;;;23.20;99.90;;;;;;4984050;28;20463;-62
2023/09/22 00:49:03;;;;;;;1.70;1.57;;;23.20;99.90;;;;;;4986036;28;20459;-65
2023/09/22 00:51:30;;;;;;;1.40;1.30;;;23.20;99.90;;;;;;4986732;28;20467;-58
2023/09/22 00:53:58;;;;;;;1.27;1.10;;;23.20;99.90;;;;;;4986682;28;20471;-62
2023/09/22 00:56:26;;;;;;;1.40;1.17;;;23.20;99.90;;;;;;4989484;28;21087;-61
2023/09/22 00:58:53;;;;;;;1.90;1.20;;;23.20;99.90;;;;;;4989305;28;20835;-67
2023/09/22 01:01:21;;;;;;;1.90;1.70;;;23.20;99.90;;;;;;4987113;28;20625;-66
2023/09/22 01:03:51;;;;;;;2.37;1.40;;;23.10;99.90;;;;;;4981331;28;20500;-59
2023/09/22 01:06:18;;;;;;;2.10;1.03;;;23.10;99.90;;;;;;4990873;28;20827;-65
2023/09/22 01:08:45;;;;;;;2.10;1.33;;;23.10;99.90;;;;;;4989129;28;20483;-61
2023/09/22 01:11:13;;;;;;;2.10;1.60;;;23.20;99.90;;;;;;4992253;28;20459;-62
2023/09/22 01:13:40;;;;;;;1.40;1.20;;;23.20;99.90;;;;;;4980290;28;20978;-63
2023/09/22 01:16:07;;;;;;;1.20;1.10;;;23.10;99.90;;;;;;4982695;28;20509;-68
2023/09/22 01:18:33;;;;;;;1.20;1.10;;;23.20;99.90;;;;;;4986307;28;20475;-62
2023/09/22 01:21:00;;;;;;;1.37;1.13;;;23.20;99.90;;;;;;4988855;28;20486;-59
2023/09/22 01:23:28;;;;;;;1.73;1.63;;;23.10;99.90;;;;;;4987698;28;20913;-70
2023/09/22 01:25:55;;;;;;;1.30;1.10;;;23.10;99.90;;;;;;4989831;28;20556;-73
2023/09/22 01:28:22;;;;;;;1.20;1.00;;;23.10;99.90;;;;;;4988785;28;21666;-58
2023/09/22 01:30:49;;;;;;;1.33;1.23;;;23.10;99.90;;;;;;4990705;28;20507;-66
2023/09/22 01:33:16;;;;;;;2.17;1.70;;;23.10;99.90;;;;;;4988380;28;20464;-58
2023/09/22 01:35:43;;;;;;;1.23;1.13;;;23.10;99.90;;;;;;4988857;28;20513;-66
2023/09/22 01:38:12;;;;;;;1.63;1.30;;;23.10;99.90;;;;;;4989090;28;20965;-58
2023/09/22 01:40:40;;;;;;;1.37;1.07;;;23.10;99.90;;;;;;4992303;28;20464;-64
2023/09/22 01:43:07;;;;;;;2.50;1.30;;;23.10;99.90;;;;;;4986474;28;20471;-64
2023/09/22 01:45:34;;;;;;;1.43;1.20;;;23.10;99.90;;;;;;4986486;28;20470;-57
2023/09/22 01:48:01;;;;;;;1.40;1.20;;;23.10;99.90;;;;;;4987892;28;20471;-61
2023/09/22 01:50:27;;;;;;;1.43;1.30;;;23.10;99.90;;;;;;4990326;28;20805;-68
2023/09/22 01:52:54;;;;;;;1.83;1.13;;;23.10;99.90;;;;;;4989104;28;20478;-54
2023/09/22 01:55:22;;;;;;;1.57;1.30;;;23.10;99.90;;;;;;4988916;28;20482;-62
2023/09/22 01:57:50;;;;;;;2.47;1.53;;;23.10;99.90;;;;;;4987847;28;20974;-58
2023/09/22 02:00:18;;;;;;;1.10;1.00;;;23.10;99.90;;;;;;4987734;28;20462;-65
2023/09/22 02:02:45;;;;;;;1.00;0.90;;;23.10;99.90;;;;;;4988080;28;20503;-65
2023/09/22 02:05:14;;;;;;;1.70;1.33;;;23.10;99.90;;;;;;4986525;28;22156;-63
2023/09/22 02:07:41;;;;;;;1.37;1.10;;;23.10;99.90;;;;;;4990241;28;21463;-61
2023/09/22 02:10:10;;;;;;;1.87;1.10;;;23.10;99.90;;;;;;4987920;28;20465;-65
2023/09/22 02:12:38;;;;;;;1.40;1.20;;;23.10;99.90;;;;;;4986277;28;20629;-59
2023/09/22 02:15:09;;;;;;;1.30;1.00;;;23.10;99.90;;;;;;4986852;28;20901;-60
2023/09/22 02:17:36;;;;;;;1.43;1.30;;;23.10;99.90;;;;;;4989845;28;20485;-63
2023/09/22 02:20:05;;;;;;;1.70;1.40;;;23.10;99.90;;;;;;4989735;28;20452;-63
2023/09/22 02:22:32;;;;;;;1.50;1.10;;;23.10;99.90;;;;;;4988754;28;20841;-66
2023/09/22 02:24:59;;;;;;;1.83;1.30;;;23.10;99.90;;;;;;4985168;28;20468;-58
2023/09/22 02:27:26;;;;;;;1.57;1.30;;;23.10;99.90;;;;;;4986379;28;20459;-65
2023/09/22 02:29:53;;;;;;;2.47;1.60;;;23.10;99.90;;;;;;4988760;28;21331;-57
2023/09/22 02:32:21;;;;;;;1.30;1.10;;;23.10;99.90;;;;;;4989123;28;20463;-62
2023/09/22 02:34:48;;;;;;;1.40;1.10;;;23.10;99.90;;;;;;4986625;28;21019;-63
2023/09/22 02:37:16;;;;;;;1.20;0.90;;;23.10;99.90;;;;;;4985835;28;20470;-69
2023/09/22 02:39:44;;;;;;;1.30;1.20;;;23.10;99.90;;;;;;4988857;28;20474;-63
2023/09/22 02:42:11;;;;;;;1.70;1.60;;;23.10;99.90;;;;;;4988630;28;20468;-61
2023/09/22 02:44:38;;;;;;;1.67;1.30;;;23.10;99.90;;;;;;4986318;28;20466;-70
2023/09/22 02:47:05;;;;;;;1.50;1.10;;;23.10;99.90;;;;;;4987035;28;20815;-67
2023/09/22 02:49:33;;;;;;;1.47;1.27;;;23.10;99.90;;;;;;4986988;28;20467;-64
2023/09/22 02:51:59;;;;;;;1.50;1.00;;;23.10;99.90;;;;;;4988413;28;20466;-60
2023/09/22 02:54:26;;;;;;;1.50;1.13;;;23.10;99.90;;;;;;4987337;28;20873;-55
2023/09/22 02:56:53;;;;;;;1.30;1.13;;;23.00;99.90;;;;;;4987596;28;20855;-63
2023/09/22 02:59:20;;;;;;;2.50;2.30;;;23.10;99.90;;;;;;4987585;28;20479;-67
2023/09/22 03:01:46;;;;;;;1.43;1.30;;;23.10;99.90;;;;;;4984889;28;20503;-64
2023/09/22 03:04:13;;;;;;;1.60;1.07;;;23.10;99.90;;;;;;4986514;28;20483;-68
2023/09/22 03:06:42;;;;;;;2.40;1.27;;;23.10;99.90;;;;;;4990006;28;20549;-62
2023/09/22 03:09:09;;;;;;;1.30;1.10;;;23.10;99.90;;;;;;4985284;28;20948;-69
2023/09/22 03:11:36;;;;;;;1.53;1.20;;;23.10;99.90;;;;;;4989390;28;20459;-67
2023/09/22 03:14:04;;;;;;;1.60;1.50;;;23.10;99.90;;;;;;4986362;28;20459;-59
2023/09/22 03:16:31;;;;;;;1.60;1.40;;;23.00;99.90;;;;;;4981353;28;20482;-63
2023/09/22 03:18:58;;;;;;;1.30;1.20;;;23.10;99.90;;;;;;4987009;28;20807;-62
2023/09/22 03:21:25;;;;;;;1.93;1.17;;;23.10;99.90;;;;;;4988574;28;20708;-67
2023/09/22 03:23:54;;;;;;;1.93;1.37;;;23.10;99.90;;;;;;4986551;28;21068;-62
2023/09/22 03:26:22;;;;;;;1.20;0.90;;;23.10;99.90;;;;;;4986083;28;20463;-61
2023/09/22 03:28:49;;;;;;;1.30;1.10;;;23.00;99.90;;;;;;4985451;28;20554;-65
2023/09/22 03:31:18;;;;;;;1.90;1.30;;;23.00;99.90;;;;;;4985694;28;20997;-60
2023/09/22 03:33:46;;;;;;;1.30;1.20;;;23.00;99.90;;;;;;4987348;28;20605;-63
2023/09/22 03:36:13;;;;;;;1.47;1.13;;;23.00;99.90;;;;;;4985824;28;20661;-64
2023/09/22 03:38:41;;;;;;;1.60;1.20;;;23.00;99.90;;;;;;4986494;28;21034;-64
2023/09/22 03:41:09;;;;;;;1.70;1.30;;;23.00;99.90;;;;;;4987507;28;20501;-64
2023/09/22 03:43:36;;;;;;;1.20;1.10;;;23.00;99.90;;;;;;4989029;28;20460;-61
2023/09/22 03:46:03;;;;;;;1.30;1.10;;;23.00;99.90;;;;;;4986999;28;20466;-68
2023/09/22 03:48:30;;;;;;;1.57;1.40;;;23.00;99.90;;;;;;4989269;28;20489;-60
2023/09/22 03:50:56;;;;;;;1.10;1.00;;;23.00;99.90;;;;;;4987128;28;20474;-63
2023/09/22 03:53:23;;;;;;;1.00;0.90;;;23.00;99.90;;;;;;4988339;28;20986;-58
2023/09/22 03:55:50;;;;;;;1.40;1.30;;;23.10;99.90;;;;;;4985620;28;20839;-64
2023/09/22 03:58:20;;;;;;;1.90;1.30;;;23.00;99.90;;;;;;4986769;28;20466;-64
2023/09/22 04:00:46;;;;;;;1.30;0.90;;;23.00;99.90;;;;;;4985358;28;20577;-67
2023/09/22 04:03:15;;;;;;;1.43;1.20;;;23.00;99.90;;;;;;4988650;28;20475;-68
2023/09/22 04:05:42;;;;;;;1.93;1.10;;;23.00;99.90;;;;;;4982927;28;20555;-66
2023/09/22 04:08:08;;;;;;;1.40;1.30;;;23.00;99.90;;;;;;4986572;28;20459;-63
2023/09/22 04:10:35;;;;;;;1.30;1.20;;;23.00;99.90;;;;;;4983398;28;20550;-64
2023/09/22 04:13:03;;;;;;;1.70;1.40;;;23.00;99.90;;;;;;4983437;28;20459;-61
2023/09/22 04:15:31;;;;;;;1.80;1.20;;;23.00;99.90;;;;;;4980510;28;20534;-68
2023/09/22 04:17:59;;;;;;;1.93;1.20;;;23.00;99.90;;;;;;4987538;28;22943;-61
2023/09/22 04:20:29;;;;;;;1.20;1.00;;;23.00;99.90;;;;;;4989204;28;20456;-58
2023/09/22 04:22:56;;;;;;;2.53;1.20;;;23.00;99.90;;;;;;4985077;28;20499;-70
2023/09/22 04:25:29;;;;;;;1.30;1.20;;;23.00;99.90;;;;;;4986600;28;20475;-56
2023/09/22 04:27:57;;;;;;;1.40;1.20;;;23.00;99.90;;;;;;4986683;28;20542;-63
2023/09/22 04:30:24;;;;;;;1.20;1.00;;;22.90;99.90;;;;;;4984608;28;20938;-58
2023/09/22 04:32:53;;;;;;;1.20;1.07;;;23.00;99.90;;;;;;4988869;28;21097;-63
2023/09/22 04:35:20;;;;;;;1.73;1.20;;;23.00;99.90;;;;;;4985759;28;21134;-59
2023/09/22 04:37:47;;;;;;;2.00;1.20;;;22.90;99.90;;;;;;4987456;28;21014;-55
2023/09/22 04:40:23;;;;;;;1.20;1.03;;;23.00;99.90;;;;;;4982438;28;20558;-56
2023/09/22 04:42:50;;;;;;;1.10;1.00;;;22.90;99.90;;;;;;4988830;28;20470;-60
2023/09/22 04:45:18;;;;;;;1.13;1.00;;;22.90;99.90;;;;;;4979096;28;20459;-65
2023/09/22 04:47:45;;;;;;;1.30;1.20;;;23.00;99.90;;;;;;4988547;28;20555;-65
2023/09/22 04:50:15;;;;;;;1.97;1.40;;;22.90;99.90;;;;;;4986187;28;20459;-58
2023/09/22 04:52:42;;;;;;;1.40;1.10;;;22.90;99.90;;;;;;4987934;28;20459;-64
2023/09/22 04:55:09;;;;;;;1.40;1.30;;;23.00;99.90;;;;;;4985366;28;20479;-59
2023/09/22 04:57:36;;;;;;;1.37;1.20;;;22.90;99.90;;;;;;4985469;28;20563;-63
2023/09/22 05:00:12;;;;;;;1.40;1.10;;;23.00;99.90;;;;;;4983460;28;20455;-66
2023/09/22 05:02:39;;;;;;;1.40;1.10;;;22.90;99.90;;;;;;4988461;28;20459;-64
2023/09/22 05:05:07;;;;;;;4.70;1.10;;;23.00;99.90;;;;;;4979822;28;20455;-65
2023/09/22 05:07:35;;;;;;;1.30;1.00;;;22.90;99.90;;;;;;4983530;28;20472;-59
2023/09/22 05:10:02;;;;;;;1.20;1.00;;;22.90;99.90;;;;;;4987686;28;20976;-65
2023/09/22 05:12:30;;;;;;;1.70;1.30;;;22.90;99.90;;;;;;4987815;28;20470;-62
2023/09/22 05:14:58;;;;;;;2.03;1.20;;;22.90;99.90;;;;;;4982137;28;20463;-66
2023/09/22 05:17:24;;;;;;;1.10;0.90;;;22.90;99.90;;;;;;4982072;28;20482;-62
2023/09/22 05:19:51;;;;;;;1.60;1.20;;;22.90;99.90;;;;;;4986815;28;20940;-68
2023/09/22 05:22:19;;;;;;;1.80;1.40;;;22.90;99.90;;;;;;4985567;28;20472;-64
2023/09/22 05:24:47;;;;;;;1.60;1.50;;;22.90;99.90;;;;;;4983682;28;20468;-60
2023/09/22 05:27:14;;;;;;;1.33;1.07;;;22.90;99.90;;;;;;4986384;28;20475;-60
2023/09/22 05:29:41;;;;;;;1.90;1.77;;;22.90;99.90;;;;;;4985082;28;21245;-57
2023/09/22 05:32:09;;;;;;;1.20;0.93;;;22.90;99.90;;;;;;4986607;28;20456;-66
2023/09/22 05:34:37;;;;;;;1.33;1.20;;;22.90;99.90;;;;;;4985049;28;20463;-64
2023/09/22 05:37:03;;;;;;;1.30;1.00;;;22.90;99.90;;;;;;4985300;28;20874;-58
2023/09/22 05:39:30;;;;;;;4.90;1.27;;;22.90;99.90;;;;;;4984781;28;20960;-57
2023/09/22 05:41:58;;;;;;;1.10;0.97;;;22.90;99.90;;;;;;4987634;28;21037;-68
2023/09/22 05:44:26;;;;;;;1.50;1.40;;;22.90;99.90;;;;;;4988201;28;21233;-67
2023/09/22 05:46:52;;;;;;;1.03;0.90;;;22.90;99.90;;;;;;4988576;28;21946;-61
2023/09/22 05:49:20;;;;;;;1.20;1.00;;;22.90;99.90;;;;;;4991320;28;20464;-61
2023/09/22 05:51:48;;;;;;;1.20;1.00;;;22.90;99.90;;;;;;4989150;28;21274;-66
2023/09/22 05:54:15;;;;;;;1.73;1.33;;;22.90;99.90;;;;;;4986060;28;20585;-66
2023/09/22 05:56:42;;;;;;;1.20;1.00;;;22.90;99.90;;;;;;4984174;28;20480;-60
2023/09/22 05:59:10;;;;;;;1.30;1.10;;;22.90;99.90;;;;;;4986266;28;20460;-61
2023/09/22 06:01:37;;;;;;;2.00;1.27;;;22.80;99.90;;;;;;4985420;28;20468;-69
2023/09/22 06:04:05;;;;;;;1.50;1.10;;;22.80;99.90;;;;;;4988241;28;20455;-64
2023/09/22 06:06:33;;;;;;;1.30;1.00;;;22.80;99.90;;;;;;4989385;28;20580;-69
2023/09/22 06:09:00;;;;;;;1.17;0.97;;;22.80;99.90;;;;;;4990787;28;20522;-73
2023/09/22 06:11:27;;;;;;;1.20;1.10;;;22.90;99.90;;;;;;4987571;28;20463;-67
2023/09/22 06:13:53;;;;;;;1.23;1.13;;;22.80;99.90;;;;;;4984283;28;21028;-53
2023/09/22 06:16:24;;;;;;;1.50;1.10;;;22.90;99.90;;;;;;4986445;28;20534;-60
2023/09/22 06:18:51;;;;;;;2.30;1.10;;;22.80;99.90;;;;;;4989243;28;20514;-56
2023/09/22 06:21:17;;;;;;;1.10;0.93;;;22.90;99.90;;;;;;4985876;28;20475;-65
2023/09/22 06:23:44;;;;;;;5.13;1.30;;;22.80;99.90;;;;;;4979137;28;20755;-59
2023/09/22 06:26:12;;;;;;;1.20;0.90;;;22.80;99.90;;;;;;4986421;28;20509;-73
2023/09/22 06:28:39;;;;;;;2.30;1.20;;;22.80;99.90;;;;;;4979406;28;21037;-58
2023/09/22 06:31:06;;;;;;;4.30;1.20;;;22.90;99.90;;;;;;4985217;28;20551;-71
2023/09/22 06:33:34;;;;;;;5.10;1.07;;;22.80;99.90;;;;;;4988619;28;21462;-54
2023/09/22 06:36:03;;;;;;;1.40;1.20;;;22.80;99.90;;;;;;4991056;28;20455;-66
2023/09/22 06:38:32;;;;;;;3.40;1.17;;;22.80;99.90;;;;;;4991061;28;20483;-53
2023/09/22 06:41:00;;;;;;;3.47;1.40;;;22.80;99.90;;;;;;4990146;28;20468;-54
2023/09/22 06:43:29;;;;;;;2.13;1.37;;;22.80;99.90;;;;;;4986279;28;20464;-53
2023/09/22 06:45:58;;;;;;;2.13;1.33;;;22.80;99.90;;;;;;4985237;28;20459;-61
2023/09/22 06:48:26;;;;;;;1.70;1.17;;;22.80;99.90;;;;;;4987756;28;21317;-55
2023/09/22 06:50:57;;;;;;;2.50;1.13;;;22.80;99.90;;;;;;4984475;28;20451;-59
2023/09/22 06:53:26;;;;;;;3.80;1.20;;;22.80;99.90;;;;;;4989918;28;22236;-54
2023/09/22 06:56:02;;;;;;;3.50;1.20;;;22.70;99.90;;;;;;4989447;28;20464;-66
2023/09/22 06:58:31;;;;;;;4.50;1.13;;;22.80;99.90;;;;;;4988760;28;20886;-66
2023/09/22 07:01:06;;;;;;;1.83;1.23;;;22.70;99.90;;;;;;4983817;28;20455;-56
2023/09/22 07:03:32;;;;;;;1.77;1.07;;;22.70;99.90;;;;;;4982481;28;20470;-70
2023/09/22 07:06:01;;;;;;;3.10;1.50;;;22.70;99.90;;;;;;4984661;28;20490;-68
2023/09/22 07:08:29;;;;;;;2.40;1.40;;;22.70;99.90;;;;;;4990268;28;20815;-59
2023/09/22 07:11:01;;;;;;;3.33;1.57;;;22.70;99.90;;;;;;4985953;28;20550;-56
2023/09/22 07:13:29;;;;;;;9.47;1.50;;;22.70;99.90;;;;;;4988799;28;21077;-54
2023/09/22 07:15:56;;;;;;;1.80;1.23;;;22.70;99.90;;;;;;4985889;28;20812;-55
2023/09/22 07:18:24;;;;;;;2.27;1.10;;;22.70;99.90;;;;;;4986377;28;20510;-56
2023/09/22 07:20:51;;;;;;;2.20;1.30;;;22.60;99.90;;;;;;4986370;28;20459;-65
2023/09/22 07:23:19;;;;;;;3.50;1.40;;;22.70;99.90;;;;;;4988045;28;20466;-60
2023/09/22 07:25:46;;;;;;;2.77;1.33;;;22.60;99.90;;;;;;4988286;28;20865;-67
2023/09/22 07:28:13;;;;;;;3.97;1.43;;;22.60;99.90;;;;;;4988102;28;20473;-68
2023/09/22 07:30:40;;;;;;;4.00;1.37;;;22.60;99.90;;;;;;4984474;28;20471;-60
2023/09/22 07:33:09;;;;;;;2.20;1.30;;;22.60;99.90;;;;;;4986828;28;20455;-65
2023/09/22 07:35:35;;;;;;;2.00;1.23;;;22.60;99.90;;;;;;4986410;28;20542;-63
2023/09/22 07:38:02;;;;;;;2.10;1.10;;;22.60;99.90;;;;;;4986707;28;20843;-62
2023/09/22 07:40:30;;;;;;;1.77;1.30;;;22.60;99.90;;;;;;4987164;28;21400;-56
2023/09/22 07:42:57;;;;;;;1.50;1.20;;;22.60;99.90;;;;;;4988347;28;20470;-57
2023/09/22 07:45:24;;;;;;;2.80;1.67;;;22.60;99.90;;;;;;4983734;28;21355;-65
2023/09/22 07:47:51;;;;;;;4.03;1.00;;;22.60;99.90;;;;;;4988733;28;20481;-62
2023/09/22 07:50:20;;;;;;;5.10;1.30;;;22.60;99.90;;;;;;4986750;28;20601;-51
2023/09/22 07:52:47;;;;;;;5.03;1.63;;;22.60;99.90;;;;;;4983251;28;20464;-54
2023/09/22 07:55:16;;;;;;;2.10;1.07;;;22.60;99.90;;;;;;4966897;28;21066;-51
2023/09/22 07:57:49;;;;;;;1.33;1.00;;;22.60;99.90;;;;;;4985844;28;20490;-51
2023/09/22 08:00:18;;;;;;;1.93;1.30;;;22.60;99.90;;;;;;4983241;28;21549;-55
2023/09/22 08:02:46;;;;;;;3.20;1.70;;;22.60;99.90;;;;;;4974385;28;20471;-56
2023/09/22 08:05:15;;;;;;;1.83;1.30;;;22.60;99.90;;;;;;4983487;28;20686;-60
2023/09/22 08:07:43;;;;;;;2.47;1.20;;;22.60;99.90;;;;;;4981512;28;20490;-63
2023/09/22 08:10:11;;;;;;;5.60;1.23;;;22.60;99.90;;;;;;4985218;28;21238;-50
2023/09/22 08:12:38;;;;;;;4.90;1.20;;;22.60;99.90;;;;;;4985090;28;20498;-59
2023/09/22 08:15:08;;;;;;;2.80;1.23;;;22.60;99.90;;;;;;4981455;28;20458;-69
2023/09/22 08:17:34;;;;;;;4.30;0.90;;;22.60;99.90;;;;;;4973854;28;20471;-54
2023/09/22 08:20:01;;;;;;;6.93;1.00;;;22.60;99.90;;;;;;4981051;28;20455;-59
2023/09/22 08:22:28;;;;;;;2.50;1.50;;;22.60;99.90;;;;;;4986463;28;20515;-61
2023/09/22 08:24:55;;;;;;;7.63;1.30;;;22.60;99.90;;;;;;4985528;28;20455;-63
2023/09/22 08:27:21;;;;;;;1.20;0.90;;;22.70;99.90;;;;;;4986127;28;20952;-50
2023/09/22 08:29:50;;;;;;;2.90;1.20;;;22.70;99.90;;;;;;4982994;28;20499;-58
2023/09/22 08:32:18;;;;;;;3.90;1.40;;;22.70;99.90;;;;;;4979027;28;20521;-59
2023/09/22 08:34:46;;;;;;;2.70;0.90;;;22.70;99.90;;;;;;4985618;28;20472;-59
2023/09/22 08:37:13;;;;;;;1.17;0.90;;;22.80;99.90;;;;;;4985146;28;20480;-56
2023/09/22 08:39:39;;;;;;;4.20;1.30;;;22.80;99.90;;;;;;4984542;28;20466;-57
2023/09/22 08:42:06;;;;;;;1.20;0.80;;;22.80;99.90;;;;;;4984799;28;20958;-56
2023/09/22 08:44:34;;;;;;;2.20;1.40;;;22.80;99.60;;;;;;4986774;28;20467;-61
2023/09/22 08:47:00;;;;;;;1.27;0.87;;;22.80;99.20;;;;;;4982632;28;21025;-52
2023/09/22 08:49:29;;;;;;;2.10;1.10;;;22.80;98.60;;;;;;4985160;28;20455;-59
2023/09/22 08:51:56;;;;;;;2.23;0.93;;;22.80;98.20;;;;;;4978116;28;20464;-57
2023/09/22 08:54:23;;;;;;;1.40;0.87;;;22.80;98.30;;;;;;4985502;28;20470;-63
2023/09/22 08:56:51;;;;;;;2.93;1.20;;;22.80;97.70;;;;;;4987201;28;20464;-55
2023/09/22 08:59:17;;;;;;;4.40;1.10;;;22.80;98.10;;;;;;4986151;28;20716;-63
2023/09/22 09:01:44;;;;;;;2.93;1.10;;;22.80;97.30;;;;;;4984990;28;20467;-53
2023/09/22 09:04:31;;;;;;;4.80;1.00;;;22.80;97.30;;;;;;4982102;28;20486;-52
2023/09/22 09:06:58;;;;;;;4.07;1.27;;;22.80;97.60;;;;;;4979174;28;20490;-64
2023/09/22 09:09:25;;;;;;;1.80;1.20;;;22.80;97.20;;;;;;4979669;28;20981;-56
2023/09/22 09:12:02;;;;;;;2.07;1.20;;;22.80;97.30;;;;;;4983320;28;20462;-58
2023/09/22 09:14:29;;;;;;;1.30;1.00;;;22.80;97.50;;;;;;4981668;28;21058;-62
2023/09/22 09:16:56;;;;;;;2.70;0.90;;;22.80;97.20;;;;;;4985079;28;20952;-62
2023/09/22 09:19:24;;;;;;;2.90;1.30;;;22.80;97.30;;;;;;4979714;28;20574;-63
2023/09/22 09:22:06;;;;;;;2.10;0.90;;;22.80;97.20;;;;;;4991179;28;20470;-58
2023/09/22 09:24:33;;;;;;;2.50;1.10;;;22.90;97.20;;;;;;4988086;28;20460;-58
2023/09/22 09:27:00;;;;;;;1.93;0.93;;;22.80;97.10;;;;;;4989049;28;21855;-55
2023/09/22 09:29:31;;;;;;;1.90;1.00;;;22.90;97.00;;;;;;4989381;28;20459;-60
2023/09/22 09:32:00;;;;;;;4.53;1.00;;;22.90;96.80;;;;;;4987265;28;20814;-68
2023/09/22 09:34:40;;;;;;;2.80;1.10;;;22.90;96.90;;;;;;4985641;28;20471;-55
2023/09/22 09:37:14;;;;;;;2.33;1.00;;;22.90;96.70;;;;;;4988787;28;20922;-61
2023/09/22 09:39:45;;;;;;;1.77;1.10;;;22.90;96.60;;;;;;4980829;28;20459;-59
2023/09/22 09:42:16;;;;;;;1.20;0.80;;;22.90;96.90;;;;;;4982937;28;20558;-60
2023/09/22 09:44:49;;;;;;;2.30;1.20;;;23.00;96.40;;;;;;4989516;28;20613;-60
2023/09/22 09:47:23;;;;;;;1.80;1.23;;;23.00;96.50;;;;;;4988873;28;20462;-50
2023/09/22 09:49:53;;;;;;;1.40;0.80;;;23.00;96.40;;;;;;4988222;28;20981;-64
2023/09/22 09:52:27;;;;;;;2.43;0.90;;;22.90;96.20;;;;;;4988730;28;21994;-63
2023/09/22 09:55:03;;;;;;;2.00;1.37;;;22.90;95.90;;;;;;4987809;28;20467;-56
2023/09/22 09:57:32;;;;;;;4.40;1.10;;;22.90;95.90;;;;;;4988656;28;20814;-58
2023/09/22 09:59:59;;;;;;;1.97;1.17;;;22.90;95.90;;;;;;4988805;28;20468;-54
2023/09/22 10:02:29;;;;;;;3.17;1.27;;;22.90;95.80;;;;;;4983813;28;20476;-56
2023/09/22 10:04:58;;;;;;;4.43;1.17;;;22.90;95.70;;;;;;4988612;28;20510;-55
2023/09/22 10:07:26;;;;;;;1.87;1.03;;;22.90;95.70;;;;;;4983976;28;20956;-62
2023/09/22 10:09:53;;;;;;;3.17;1.23;;;23.00;95.90;;;;;;4976990;28;20455;-62
2023/09/22 10:12:20;;;;;;;4.87;1.33;;;22.90;95.90;;;;;;4987710;28;20460;-51
2023/09/22 10:14:51;;;;;;;3.10;1.23;;;22.90;95.90;;;;;;4987715;28;20455;-58
2023/09/22 10:17:22;;;;;;;2.30;1.10;;;22.90;95.70;;;;;;4984382;28;20465;-52
2023/09/22 10:19:49;;;;;;;1.93;1.00;;;22.90;95.50;;;;;;4988818;28;20486;-59
2023/09/22 10:22:16;;;;;;;1.80;0.90;;;22.90;95.60;;;;;;4986073;28;20455;-62
2023/09/22 10:24:44;;;;;;;1.87;1.10;;;22.90;95.50;;;;;;4987186;28;21026;-61
2023/09/22 10:27:13;;;;;;;2.70;1.10;;;22.90;95.50;;;;;;4984963;28;20448;-55
2023/09/22 10:29:45;;;;;;;3.47;1.43;;;23.00;95.50;;;;;;4988590;28;20474;-63
2023/09/22 10:32:21;;;;;;;7.33;1.40;;;22.90;95.50;;;;;;4987774;28;20986;-51
2023/09/22 10:34:49;;;;;;;3.13;1.20;;;22.90;95.50;;;;;;4988061;28;20510;-61
2023/09/22 10:37:16;;;;;;;2.90;1.53;;;22.90;95.60;;;;;;4985378;28;20463;-50
2023/09/22 10:39:56;;;;;;;2.40;1.33;;;22.90;95.60;;;;;;4982871;28;20555;-60
2023/09/22 10:42:24;;;;;;;2.60;1.00;;;22.90;95.80;;;;;;4987557;28;20477;-64
2023/09/22 10:45:02;;;;;;;4.03;1.83;;;22.90;95.80;;;;;;4984141;28;20458;-57
2023/09/22 10:47:40;;;;;;;2.70;1.77;;;22.90;95.90;;;;;;4988127;28;20468;-61
2023/09/22 10:50:17;;;;;;;3.90;1.77;;;22.90;96.10;;;;;;4986895;28;20460;-68
2023/09/22 10:52:55;;;;;;;3.30;2.00;;;22.90;96.00;;;;;;4990140;28;20466;-53
2023/09/22 10:55:31;;;;;;;7.73;2.13;;;22.90;96.20;;;;;;4984856;28;20826;-51
2023/09/22 10:57:59;;;;;;;7.47;3.23;;;22.80;96.00;;;;;;4989501;28;20955;-58
2023/09/22 11:00:26;;;;;;;4.73;2.67;;;22.90;96.00;;;;;;4983558;28;20465;-55
2023/09/22 11:02:54;;;;;;;8.23;3.40;;;22.90;96.00;;;;;;4980985;28;20573;-56
2023/09/22 11:05:21;;;;;;;5.40;3.00;;;22.90;96.00;;;;;;4985240;28;20481;-71
2023/09/22 11:07:51;;;;;;;9.47;3.30;;;22.90;95.80;;;;;;4989735;28;20479;-57
2023/09/22 11:10:22;;;;;;;9.33;3.50;;;22.80;95.90;;;;;;4984531;28;20463;-63
2023/09/22 11:12:51;;;;;;;8.50;3.20;;;22.80;95.80;;;;;;4988702;28;20455;-58
2023/09/22 11:15:18;;;;;;;10.23;3.13;;;22.80;95.70;;;;;;4977354;28;20461;-59
2023/09/22 11:17:47;;;;;;;5.40;2.93;;;22.90;96.10;;;;;;4986508;28;20478;-57
2023/09/22 11:20:26;;;;;;;7.47;3.20;;;22.90;96.20;;;;;;4988342;28;20458;-62
2023/09/22 11:22:54;;;;;;;4.60;2.40;;;22.90;96.30;;;;;;4986140;28;20446;-56
2023/09/22 11:25:24;;;;;;;10.80;3.57;;;22.90;96.20;;;;;;4980553;28;21039;-55
2023/09/22 11:27:53;;;;;;;6.20;2.83;;;23.00;96.30;;;;;;4990695;28;20463;-55
2023/09/22 11:30:25;;;;;;;4.90;2.13;;;22.90;96.20;;;;;;4983710;28;20456;-56
2023/09/22 11:32:53;;;;;;;4.40;2.60;;;22.90;96.10;;;;;;4987027;28;20561;-62
2023/09/22 11:35:33;;;;;;;7.23;2.90;;;22.90;96.10;;;;;;4987951;28;20465;-64
2023/09/22 11:38:00;;;;;;;6.10;3.07;;;22.90;96.20;;;;;;4986795;28;20608;-63
2023/09/22 11:40:28;;;;;;;5.93;2.83;;;23.00;96.10;;;;;;4985900;28;20452;-60
2023/09/22 11:42:57;;;;;;;5.57;2.83;;;22.90;96.30;;;;;;4986914;28;20911;-51
2023/09/22 11:45:25;;;;;;;8.67;2.60;;;22.90;96.10;;;;;;4985792;28;20470;-64
2023/09/22 11:48:04;;;;;;;4.97;2.80;;;23.00;96.20;;;;;;4985894;28;20483;-63
2023/09/22 11:50:31;;;;;;;4.53;2.57;;;22.90;96.10;;;;;;4986859;28;20542;-59
2023/09/22 11:53:18;;;;;;;8.03;2.80;;;23.00;96.10;;;;;;4983405;28;20453;-60
2023/09/22 11:55:46;;;;;;;2.97;2.37;;;23.00;96.20;;;;;;4985084;28;20546;-63
2023/09/22 11:58:15;;;;;;;6.10;3.20;;;23.00;96.10;;;;;;4979138;28;21133;-59
2023/09/22 12:00:43;;;;;;;5.70;3.00;;;23.00;96.20;;;;;;4982599;28;21050;-57
2023/09/22 12:03:09;;;;;;;2.83;1.70;;;23.00;96.10;;;;;;4970292;28;20898;-63
2023/09/22 12:05:37;;;;;;;3.40;1.57;;;23.00;94.50;;;;;;4979036;28;20464;-59
2023/09/22 12:08:05;;;;;;;3.33;1.50;;;23.00;93.10;;;;;;4974856;28;21402;-62
2023/09/22 12:10:32;;;;;;;1.80;1.27;;;22.90;92.80;;;;;;4979602;28;20816;-59
2023/09/22 12:12:58;;;;;;;2.87;1.70;;;22.90;92.80;;;;;;4980265;28;20646;-59
2023/09/22 12:15:26;;;;;;;1.80;0.90;;;22.90;92.80;;;;;;4973667;28;20465;-65
2023/09/22 12:17:53;;;;;;;4.27;1.20;;;22.90;92.20;;;;;;4973831;28;21397;-54
2023/09/22 12:20:20;;;;;;;2.27;1.03;;;22.90;92.50;;;;;;4978998;28;20470;-62
2023/09/22 12:22:47;;;;;;;2.30;1.20;;;22.80;92.00;;;;;;4984849;28;21218;-57
2023/09/22 12:25:14;;;;;;;1.20;0.87;;;22.90;91.70;;;;;;4986491;28;20914;-62
2023/09/22 12:27:41;;;;;;;2.97;1.50;;;22.80;91.60;;;;;;4987270;28;20460;-67
2023/09/22 12:30:09;;;;;;;2.33;1.20;;;22.90;91.80;;;;;;4979847;28;20468;-70
2023/09/22 12:32:37;;;;;;;2.10;1.70;;;22.90;91.80;;;;;;4972934;28;20461;-59
2023/09/22 12:35:05;;;;;;;1.50;1.07;;;22.90;91.80;;;;;;4985545;28;20474;-58
2023/09/22 12:37:33;;;;;;;2.47;1.43;;;22.90;92.00;;;;;;4989273;28;20470;-56
2023/09/22 12:40:01;;;;;;;2.20;1.33;;;23.00;91.40;;;;;;4987013;28;21245;-62
2023/09/22 12:42:27;;;;;;;3.00;1.10;;;22.90;91.00;;;;;;4983386;28;20887;-60
2023/09/22 12:44:54;;;;;;;2.47;1.20;;;22.90;90.90;;;;;;4976695;28;20494;-61
2023/09/22 12:47:21;;;;;;;2.80;1.00;;;23.00;91.00;;;;;;4980226;28;20518;-55
2023/09/22 12:49:49;;;;;;;3.00;1.67;;;23.00;91.00;;;;;;4986198;28;20464;-60
2023/09/22 12:52:16;;;;;;;2.00;1.03;;;23.10;91.10;;;;;;4991236;28;20500;-52